Terminal Aerodrome Forecast
Issued by NWS

Home | Current Version | Previous Version | Text Only | Print | Product List | Glossary On
Versions: 1 2 3 4 5 6 7 8 9 10 11 12 13 14 15 16
000
FTUS43 KABR 230500
TAFMBG
TAF
KMBG 230522Z 2306/2406 16014KT P6SM BKN250
     FM231600 15014G20KT P6SM OVC050
     FM240100 13008KT P6SM BKN250=

USA.gov is the U.S. government's official web portal to all federal, state and local government web resources and services.